sensor_id;sensor_type;location;lat;lon;timestamp;temperature;humidity
23377;DHT22;14353;46.070;13.222;2022-09-09T00:06:48;29.30;50.60
23377;DHT22;14353;46.070;13.222;2022-09-09T00:09:17;29.30;50.50
23377;DHT22;14353;46.070;13.222;2022-09-09T00:11:51;29.30;50.60
23377;DHT22;14353;46.070;13.222;2022-09-09T00:17:26;29.30;50.60
23377;DHT22;14353;46.070;13.222;2022-09-09T00:20:14;29.20;50.60
23377;DHT22;14353;46.070;13.222;2022-09-09T00:22:57;29.20;50.60
23377;DHT22;14353;46.070;13.222;2022-09-09T00:31:31;29.20;50.60
23377;DHT22;14353;46.070;13.222;2022-09-09T00:34:09;29.20;50.60
23377;DHT22;14353;46.070;13.222;2022-09-09T00:36:39;29.20;50.70
23377;DHT22;14353;46.070;13.222;2022-09-09T00:39:05;29.20;50.60
23377;DHT22;14353;46.070;13.222;2022-09-09T00:44:12;29.20;50.60
23377;DHT22;14353;46.070;13.222;2022-09-09T00:47:12;29.20;50.70
23377;DHT22;14353;46.070;13.222;2022-09-09T00:50:00;29.20;50.70
23377;DHT22;14353;46.070;13.222;2022-09-09T00:58:13;29.20;50.60
23377;DHT22;14353;46.070;13.222;2022-09-09T01:01:24;29.20;50.70
23377;DHT22;14353;46.070;13.222;2022-09-09T01:03:36;29.20;50.70
23377;DHT22;14353;46.070;13.222;2022-09-09T01:09:02;29.20;50.70
23377;DHT22;14353;46.070;13.222;2022-09-09T01:14:14;29.20;50.80
23377;DHT22;14353;46.070;13.222;2022-09-09T01:16:45;29.20;50.80
23377;DHT22;14353;46.070;13.222;2022-09-09T01:19:20;29.20;50.80
23377;DHT22;14353;46.070;13.222;2022-09-09T01:22:00;29.10;50.70
23377;DHT22;14353;46.070;13.222;2022-09-09T01:24:36;29.10;50.80
23377;DHT22;14353;46.070;13.222;2022-09-09T01:27:06;29.10;50.80
23377;DHT22;14353;46.070;13.222;2022-09-09T01:29:33;29.10;51.40
23377;DHT22;14353;46.070;13.222;2022-09-09T01:35:03;29.10;50.70
23377;DHT22;14353;46.070;13.222;2022-09-09T01:37:29;29.10;50.80
23377;DHT22;14353;46.070;13.222;2022-09-09T01:39:56;29.10;50.80
23377;DHT22;14353;46.070;13.222;2022-09-09T01:42:21;29.10;50.80
23377;DHT22;14353;46.070;13.222;2022-09-09T01:44:47;29.10;50.80
23377;DHT22;14353;46.070;13.222;2022-09-09T01:47:14;29.10;50.80
23377;DHT22;14353;46.070;13.222;2022-09-09T01:49:41;29.10;50.90
23377;DHT22;14353;46.070;13.222;2022-09-09T01:52:07;29.10;50.80
23377;DHT22;14353;46.070;13.222;2022-09-09T01:54:34;29.10;50.80
23377;DHT22;14353;46.070;13.222;2022-09-09T01:57:18;29.00;50.70
23377;DHT22;14353;46.070;13.222;2022-09-09T02:00:03;29.00;50.70
23377;DHT22;14353;46.070;13.222;2022-09-09T02:05:37;29.00;50.80
23377;DHT22;14353;46.070;13.222;2022-09-09T02:08:07;29.00;50.80
23377;DHT22;14353;46.070;13.222;2022-09-09T02:13:18;29.00;50.80
23377;DHT22;14353;46.070;13.222;2022-09-09T02:16:02;29.00;50.80
23377;DHT22;14353;46.070;13.222;2022-09-09T02:18:35;29.00;50.90
23377;DHT22;14353;46.070;13.222;2022-09-09T02:21:05;29.00;50.80
23377;DHT22;14353;46.070;13.222;2022-09-09T02:23:33;29.00;50.80
23377;DHT22;14353;46.070;13.222;2022-09-09T02:26:00;28.90;50.70
23377;DHT22;14353;46.070;13.222;2022-09-09T02:28:31;29.00;50.90
23377;DHT22;14353;46.070;13.222;2022-09-09T02:30:57;28.90;50.80
23377;DHT22;14353;46.070;13.222;2022-09-09T02:33:27;28.90;50.80
23377;DHT22;14353;46.070;13.222;2022-09-09T02:35:55;28.90;50.80
23377;DHT22;14353;46.070;13.222;2022-09-09T02:38:29;28.90;50.80
23377;DHT22;14353;46.070;13.222;2022-09-09T02:40:57;28.90;50.80
23377;DHT22;14353;46.070;13.222;2022-09-09T02:43:24;28.90;50.70
23377;DHT22;14353;46.070;13.222;2022-09-09T02:49:02;28.90;50.80
23377;DHT22;14353;46.070;13.222;2022-09-09T02:51:35;28.90;50.80
23377;DHT22;14353;46.070;13.222;2022-09-09T02:56:49;28.90;50.80
23377;DHT22;14353;46.070;13.222;2022-09-09T02:59:16;28.90;50.80
23377;DHT22;14353;46.070;13.222;2022-09-09T03:01:43;28.90;50.90
23377;DHT22;14353;46.070;13.222;2022-09-09T03:04:09;28.90;50.90
23377;DHT22;14353;46.070;13.222;2022-09-09T03:06:37;28.90;50.80
23377;DHT22;14353;46.070;13.222;2022-09-09T03:09:03;28.90;50.80
23377;DHT22;14353;46.070;13.222;2022-09-09T03:11:29;28.90;50.90
23377;DHT22;14353;46.070;13.222;2022-09-09T03:13:55;28.90;50.80
23377;DHT22;14353;46.070;13.222;2022-09-09T03:16:24;28.90;50.90
23377;DHT22;14353;46.070;13.222;2022-09-09T03:18:50;28.90;50.90
23377;DHT22;14353;46.070;13.222;2022-09-09T03:21:16;28.90;50.80
23377;DHT22;14353;46.070;13.222;2022-09-09T03:23:42;28.90;50.80
23377;DHT22;14353;46.070;13.222;2022-09-09T03:26:08;28.90;50.90
23377;DHT22;14353;46.070;13.222;2022-09-09T03:28:34;28.90;50.90
23377;DHT22;14353;46.070;13.222;2022-09-09T03:31:02;28.90;50.90
23377;DHT22;14353;46.070;13.222;2022-09-09T03:33:28;28.90;50.90
23377;DHT22;14353;46.070;13.222;2022-09-09T03:35:55;28.90;50.80
23377;DHT22;14353;46.070;13.222;2022-09-09T03:38:25;28.90;50.90
23377;DHT22;14353;46.070;13.222;2022-09-09T03:40:52;28.80;50.80
23377;DHT22;14353;46.070;13.222;2022-09-09T03:43:24;28.90;50.90
23377;DHT22;14353;46.070;13.222;2022-09-09T03:45:50;28.80;50.80
23377;DHT22;14353;46.070;13.222;2022-09-09T03:48:17;28.80;50.80
23377;DHT22;14353;46.070;13.222;2022-09-09T03:50:47;28.80;50.80
23377;DHT22;14353;46.070;13.222;2022-09-09T03:53:15;28.80;50.80
23377;DHT22;14353;46.070;13.222;2022-09-09T03:55:52;28.80;50.80
23377;DHT22;14353;46.070;13.222;2022-09-09T03:58:21;28.80;50.80
23377;DHT22;14353;46.070;13.222;2022-09-09T04:00:58;28.80;50.80
23377;DHT22;14353;46.070;13.222;2022-09-09T04:03:25;28.80;50.80
23377;DHT22;14353;46.070;13.222;2022-09-09T04:05:52;28.80;50.80
23377;DHT22;14353;46.070;13.222;2022-09-09T04:08:19;28.80;50.80
23377;DHT22;14353;46.070;13.222;2022-09-09T04:10:47;28.80;50.80
23377;DHT22;14353;46.070;13.222;2022-09-09T04:13:14;28.80;50.80
23377;DHT22;14353;46.070;13.222;2022-09-09T04:15:41;28.80;50.80
23377;DHT22;14353;46.070;13.222;2022-09-09T04:18:07;28.80;50.80
23377;DHT22;14353;46.070;13.222;2022-09-09T04:20:33;28.80;50.80
23377;DHT22;14353;46.070;13.222;2022-09-09T04:22:59;28.80;50.80
23377;DHT22;14353;46.070;13.222;2022-09-09T04:25:25;28.80;50.80
23377;DHT22;14353;46.070;13.222;2022-09-09T04:27:55;28.80;50.70
23377;DHT22;14353;46.070;13.222;2022-09-09T04:30:22;28.70;50.70
23377;DHT22;14353;46.070;13.222;2022-09-09T04:32:48;28.80;50.80
23377;DHT22;14353;46.070;13.222;2022-09-09T04:35:14;28.80;50.70
23377;DHT22;14353;46.070;13.222;2022-09-09T04:37:40;28.80;50.70
23377;DHT22;14353;46.070;13.222;2022-09-09T04:40:07;28.70;50.70
23377;DHT22;14353;46.070;13.222;2022-09-09T04:42:39;28.70;50.60
23377;DHT22;14353;46.070;13.222;2022-09-09T04:45:06;28.70;50.70
23377;DHT22;14353;46.070;13.222;2022-09-09T04:47:32;28.70;50.60
23377;DHT22;14353;46.070;13.222;2022-09-09T04:49:59;28.70;50.70
23377;DHT22;14353;46.070;13.222;2022-09-09T04:52:26;28.70;50.60
23377;DHT22;14353;46.070;13.222;2022-09-09T04:54:51;28.70;50.60
23377;DHT22;14353;46.070;13.222;2022-09-09T04:57:19;28.70;50.60
23377;DHT22;14353;46.070;13.222;2022-09-09T04:59:45;28.70;50.60
23377;DHT22;14353;46.070;13.222;2022-09-09T05:02:12;28.70;50.50
23377;DHT22;14353;46.070;13.222;2022-09-09T05:04:38;28.70;50.60
23377;DHT22;14353;46.070;13.222;2022-09-09T05:07:04;28.70;50.60
23377;DHT22;14353;46.070;13.222;2022-09-09T05:09:30;28.70;50.60
23377;DHT22;14353;46.070;13.222;2022-09-09T05:11:56;28.70;50.60
23377;DHT22;14353;46.070;13.222;2022-09-09T05:14:22;28.70;50.60
23377;DHT22;14353;46.070;13.222;2022-09-09T05:16:48;28.70;50.60
23377;DHT22;14353;46.070;13.222;2022-09-09T05:19:15;28.70;50.60
23377;DHT22;14353;46.070;13.222;2022-09-09T05:21:44;28.70;50.50
23377;DHT22;14353;46.070;13.222;2022-09-09T05:24:11;28.70;50.50
23377;DHT22;14353;46.070;13.222;2022-09-09T05:26:37;28.70;50.50
23377;DHT22;14353;46.070;13.222;2022-09-09T05:29:03;28.70;50.50
23377;DHT22;14353;46.070;13.222;2022-09-09T05:31:30;28.70;50.50
23377;DHT22;14353;46.070;13.222;2022-09-09T05:33:56;28.70;50.50
23377;DHT22;14353;46.070;13.222;2022-09-09T05:36:22;28.70;50.50
23377;DHT22;14353;46.070;13.222;2022-09-09T05:38:49;28.70;50.50
23377;DHT22;14353;46.070;13.222;2022-09-09T05:41:15;28.70;50.40
23377;DHT22;14353;46.070;13.222;2022-09-09T05:43:42;28.70;50.40
23377;DHT22;14353;46.070;13.222;2022-09-09T05:46:19;28.70;50.40
23377;DHT22;14353;46.070;13.222;2022-09-09T05:48:46;28.70;50.40
23377;DHT22;14353;46.070;13.222;2022-09-09T05:51:14;28.70;50.40
23377;DHT22;14353;46.070;13.222;2022-09-09T05:53:44;28.70;50.40
23377;DHT22;14353;46.070;13.222;2022-09-09T05:56:13;28.70;50.40
23377;DHT22;14353;46.070;13.222;2022-09-09T05:58:41;28.70;50.40
23377;DHT22;14353;46.070;13.222;2022-09-09T06:01:20;28.70;50.40
23377;DHT22;14353;46.070;13.222;2022-09-09T06:03:48;28.70;50.40
23377;DHT22;14353;46.070;13.222;2022-09-09T06:06:19;28.70;50.40
23377;DHT22;14353;46.070;13.222;2022-09-09T06:08:50;28.70;50.30
23377;DHT22;14353;46.070;13.222;2022-09-09T06:11:19;28.70;50.30
23377;DHT22;14353;46.070;13.222;2022-09-09T06:13:45;28.70;50.30
23377;DHT22;14353;46.070;13.222;2022-09-09T06:16:17;28.70;50.30
23377;DHT22;14353;46.070;13.222;2022-09-09T06:18:44;28.70;50.40
23377;DHT22;14353;46.070;13.222;2022-09-09T06:23:42;28.70;50.40
23377;DHT22;14353;46.070;13.222;2022-09-09T06:26:12;28.70;50.50
23377;DHT22;14353;46.070;13.222;2022-09-09T06:28:39;28.70;50.40
23377;DHT22;14353;46.070;13.222;2022-09-09T06:31:07;28.60;50.30
23377;DHT22;14353;46.070;13.222;2022-09-09T06:33:38;28.60;50.30
23377;DHT22;14353;46.070;13.222;2022-09-09T06:36:11;28.70;50.30
23377;DHT22;14353;46.070;13.222;2022-09-09T06:38:37;28.70;50.30
23377;DHT22;14353;46.070;13.222;2022-09-09T06:41:08;28.70;50.20
23377;DHT22;14353;46.070;13.222;2022-09-09T06:43:34;28.70;50.20
23377;DHT22;14353;46.070;13.222;2022-09-09T06:46:09;28.70;50.20
23377;DHT22;14353;46.070;13.222;2022-09-09T06:48:36;28.70;50.10
23377;DHT22;14353;46.070;13.222;2022-09-09T06:51:16;28.70;50.20
23377;DHT22;14353;46.070;13.222;2022-09-09T06:53:44;28.70;50.20
23377;DHT22;14353;46.070;13.222;2022-09-09T06:56:25;28.70;50.20
23377;DHT22;14353;46.070;13.222;2022-09-09T06:58:54;28.70;50.20
23377;DHT22;14353;46.070;13.222;2022-09-09T07:01:23;28.70;50.20
23377;DHT22;14353;46.070;13.222;2022-09-09T07:03:51;28.70;50.10
23377;DHT22;14353;46.070;13.222;2022-09-09T07:06:35;28.70;50.10
23377;DHT22;14353;46.070;13.222;2022-09-09T07:09:11;28.80;50.10
23377;DHT22;14353;46.070;13.222;2022-09-09T07:11:40;28.80;50.00
23377;DHT22;14353;46.070;13.222;2022-09-09T07:14:07;28.80;50.00
23377;DHT22;14353;46.070;13.222;2022-09-09T07:16:34;28.80;50.00
23377;DHT22;14353;46.070;13.222;2022-09-09T07:19:03;28.80;49.90
23377;DHT22;14353;46.070;13.222;2022-09-09T07:21:31;28.80;50.00
23377;DHT22;14353;46.070;13.222;2022-09-09T07:23:58;28.80;49.90
23377;DHT22;14353;46.070;13.222;2022-09-09T07:26:27;28.80;50.00
23377;DHT22;14353;46.070;13.222;2022-09-09T07:28:55;28.80;49.90
23377;DHT22;14353;46.070;13.222;2022-09-09T07:31:31;28.80;50.00
23377;DHT22;14353;46.070;13.222;2022-09-09T07:34:00;28.80;50.00
23377;DHT22;14353;46.070;13.222;2022-09-09T07:36:29;28.80;49.90
23377;DHT22;14353;46.070;13.222;2022-09-09T07:39:02;28.80;50.00
23377;DHT22;14353;46.070;13.222;2022-09-09T07:41:38;28.80;49.90
23377;DHT22;14353;46.070;13.222;2022-09-09T07:44:11;28.80;49.90
23377;DHT22;14353;46.070;13.222;2022-09-09T07:46:39;28.80;50.00
23377;DHT22;14353;46.070;13.222;2022-09-09T07:49:05;28.80;50.00
23377;DHT22;14353;46.070;13.222;2022-09-09T07:51:36;28.80;49.90
23377;DHT22;14353;46.070;13.222;2022-09-09T07:54:06;28.80;49.90
23377;DHT22;14353;46.070;13.222;2022-09-09T07:56:33;28.80;49.90
23377;DHT22;14353;46.070;13.222;2022-09-09T07:59:03;28.80;50.30
23377;DHT22;14353;46.070;13.222;2022-09-09T08:01:41;28.80;49.90
23377;DHT22;14353;46.070;13.222;2022-09-09T08:04:15;28.80;49.90
23377;DHT22;14353;46.070;13.222;2022-09-09T08:06:54;28.80;50.00
23377;DHT22;14353;46.070;13.222;2022-09-09T08:09:21;28.80;49.90
23377;DHT22;14353;46.070;13.222;2022-09-09T08:11:54;28.80;49.90
23377;DHT22;14353;46.070;13.222;2022-09-09T08:14:22;28.80;49.90
23377;DHT22;14353;46.070;13.222;2022-09-09T08:16:50;28.80;50.00
23377;DHT22;14353;46.070;13.222;2022-09-09T08:19:19;28.80;50.00
23377;DHT22;14353;46.070;13.222;2022-09-09T08:21:46;28.70;50.00
23377;DHT22;14353;46.070;13.222;2022-09-09T08:24:15;28.80;50.00
23377;DHT22;14353;46.070;13.222;2022-09-09T08:26:44;28.80;50.00
23377;DHT22;14353;46.070;13.222;2022-09-09T08:29:12;28.80;49.90
23377;DHT22;14353;46.070;13.222;2022-09-09T08:31:45;28.80;49.90
23377;DHT22;14353;46.070;13.222;2022-09-09T08:34:13;28.80;50.00
23377;DHT22;14353;46.070;13.222;2022-09-09T08:36:42;28.80;50.00
23377;DHT22;14353;46.070;13.222;2022-09-09T08:39:11;28.80;49.90
23377;DHT22;14353;46.070;13.222;2022-09-09T08:58:31;28.90;49.60
23377;DHT22;14353;46.070;13.222;2022-09-09T09:03:50;29.00;49.60
23377;DHT22;14353;46.070;13.222;2022-09-09T09:12:00;29.00;49.70
23377;DHT22;14353;46.070;13.222;2022-09-09T09:14:33;29.00;49.60
23377;DHT22;14353;46.070;13.222;2022-09-09T09:17:11;28.90;49.70
23377;DHT22;14353;46.070;13.222;2022-09-09T09:19:40;28.90;49.60
23377;DHT22;14353;46.070;13.222;2022-09-09T09:24:54;28.90;49.70
23377;DHT22;14353;46.070;13.222;2022-09-09T09:27:35;28.90;49.70
23377;DHT22;14353;46.070;13.222;2022-09-09T09:32:53;28.90;49.70
23377;DHT22;14353;46.070;13.222;2022-09-09T09:35:19;28.90;49.70
23377;DHT22;14353;46.070;13.222;2022-09-09T09:37:47;29.00;49.60
23377;DHT22;14353;46.070;13.222;2022-09-09T09:40:18;29.00;49.50
23377;DHT22;14353;46.070;13.222;2022-09-09T09:42:54;29.00;49.50
23377;DHT22;14353;46.070;13.222;2022-09-09T09:45:28;29.00;49.40
23377;DHT22;14353;46.070;13.222;2022-09-09T09:48:03;29.10;49.40
23377;DHT22;14353;46.070;13.222;2022-09-09T09:50:30;29.10;49.30
23377;DHT22;14353;46.070;13.222;2022-09-09T09:52:59;29.10;49.30
23377;DHT22;14353;46.070;13.222;2022-09-09T09:55:26;29.10;49.20
23377;DHT22;14353;46.070;13.222;2022-09-09T09:58:04;29.20;49.20
23377;DHT22;14353;46.070;13.222;2022-09-09T10:00:31;29.20;49.10
23377;DHT22;14353;46.070;13.222;2022-09-09T10:02:59;29.20;48.90
23377;DHT22;14353;46.070;13.222;2022-09-09T10:05:30;29.30;49.00
23377;DHT22;14353;46.070;13.222;2022-09-09T10:08:14;29.30;48.90
23377;DHT22;14353;46.070;13.222;2022-09-09T10:16:17;29.30;48.70
23377;DHT22;14353;46.070;13.222;2022-09-09T10:19:00;29.40;48.70
23377;DHT22;14353;46.070;13.222;2022-09-09T10:24:08;29.40;48.60
23377;DHT22;14353;46.070;13.222;2022-09-09T10:26:44;29.40;48.50
23377;DHT22;14353;46.070;13.222;2022-09-09T10:38:14;29.50;48.30
23377;DHT22;14353;46.070;13.222;2022-09-09T10:48:45;29.60;47.90
23377;DHT22;14353;46.070;13.222;2022-09-09T10:51:25;29.70;47.80
23377;DHT22;14353;46.070;13.222;2022-09-09T10:56:48;29.80;47.60
23377;DHT22;14353;46.070;13.222;2022-09-09T10:59:29;29.80;47.50
23377;DHT22;14353;46.070;13.222;2022-09-09T11:04:30;29.90;47.20
23377;DHT22;14353;46.070;13.222;2022-09-09T11:07:04;30.00;47.10
23377;DHT22;14353;46.070;13.222;2022-09-09T11:09:35;30.00;47.00
23377;DHT22;14353;46.070;13.222;2022-09-09T11:12:03;30.10;46.90
23377;DHT22;14353;46.070;13.222;2022-09-09T11:14:36;30.10;46.80
23377;DHT22;14353;46.070;13.222;2022-09-09T11:17:30;30.10;46.70
23377;DHT22;14353;46.070;13.222;2022-09-09T11:19:59;30.10;46.60
23377;DHT22;14353;46.070;13.222;2022-09-09T11:22:46;30.10;46.50
23377;DHT22;14353;46.070;13.222;2022-09-09T11:25:33;30.10;46.50
23377;DHT22;14353;46.070;13.222;2022-09-09T11:31:32;30.20;46.30
23377;DHT22;14353;46.070;13.222;2022-09-09T11:36:59;30.20;46.30
23377;DHT22;14353;46.070;13.222;2022-09-09T11:39:38;30.20;46.30
23377;DHT22;14353;46.070;13.222;2022-09-09T11:44:41;30.20;46.30
23377;DHT22;14353;46.070;13.222;2022-09-09T11:47:28;30.20;46.30
23377;DHT22;14353;46.070;13.222;2022-09-09T11:50:08;30.10;46.30
23377;DHT22;14353;46.070;13.222;2022-09-09T11:52:38;30.10;46.40
23377;DHT22;14353;46.070;13.222;2022-09-09T11:55:32;30.10;46.40
23377;DHT22;14353;46.070;13.222;2022-09-09T12:00:40;30.10;46.50
23377;DHT22;14353;46.070;13.222;2022-09-09T12:06:07;30.00;46.60
23377;DHT22;14353;46.070;13.222;2022-09-09T12:08:35;30.00;46.60
23377;DHT22;14353;46.070;13.222;2022-09-09T12:11:02;30.00;46.70
23377;DHT22;14353;46.070;13.222;2022-09-09T12:13:30;29.90;46.60
23377;DHT22;14353;46.070;13.222;2022-09-09T12:15:58;29.90;46.60
23377;DHT22;14353;46.070;13.222;2022-09-09T12:18:34;29.90;46.70
23377;DHT22;14353;46.070;13.222;2022-09-09T12:21:23;29.90;46.70
23377;DHT22;14353;46.070;13.222;2022-09-09T12:23:56;29.90;46.80
23377;DHT22;14353;46.070;13.222;2022-09-09T12:32:15;29.70;46.80
23377;DHT22;14353;46.070;13.222;2022-09-09T12:37:16;29.70;46.90
23377;DHT22;14353;46.070;13.222;2022-09-09T12:40:20;29.70;46.90
23377;DHT22;14353;46.070;13.222;2022-09-09T12:42:46;29.60;46.80
23377;DHT22;14353;46.070;13.222;2022-09-09T12:45:21;29.60;46.90
23377;DHT22;14353;46.070;13.222;2022-09-09T12:48:10;29.60;46.90
23377;DHT22;14353;46.070;13.222;2022-09-09T12:50:49;29.60;47.00
23377;DHT22;14353;46.070;13.222;2022-09-09T12:53:26;29.50;46.90
23377;DHT22;14353;46.070;13.222;2022-09-09T12:56:28;29.50;47.00
23377;DHT22;14353;46.070;13.222;2022-09-09T12:58:48;29.50;47.10
23377;DHT22;14353;46.070;13.222;2022-09-09T13:01:28;29.40;47.10
23377;DHT22;14353;46.070;13.222;2022-09-09T13:03:55;29.40;47.20
23377;DHT22;14353;46.070;13.222;2022-09-09T13:06:28;29.40;47.20
23377;DHT22;14353;46.070;13.222;2022-09-09T13:08:55;29.40;47.20
23377;DHT22;14353;46.070;13.222;2022-09-09T13:11:34;29.40;47.30
23377;DHT22;14353;46.070;13.222;2022-09-09T13:14:02;29.30;47.20
23377;DHT22;14353;46.070;13.222;2022-09-09T13:16:31;29.30;47.20
23377;DHT22;14353;46.070;13.222;2022-09-09T13:18:59;29.30;47.30
23377;DHT22;14353;46.070;13.222;2022-09-09T13:21:36;29.30;47.30
23377;DHT22;14353;46.070;13.222;2022-09-09T13:24:25;29.30;47.30
23377;DHT22;14353;46.070;13.222;2022-09-09T13:26:57;29.30;47.40
23377;DHT22;14353;46.070;13.222;2022-09-09T13:29:24;29.30;47.40
23377;DHT22;14353;46.070;13.222;2022-09-09T13:31:50;29.30;47.40
23377;DHT22;14353;46.070;13.222;2022-09-09T13:34:33;29.30;47.40
23377;DHT22;14353;46.070;13.222;2022-09-09T13:37:03;29.30;47.60
23377;DHT22;14353;46.070;13.222;2022-09-09T13:39:37;29.30;47.50
23377;DHT22;14353;46.070;13.222;2022-09-09T13:42:03;29.30;47.60
23377;DHT22;14353;46.070;13.222;2022-09-09T13:44:37;29.30;47.60
23377;DHT22;14353;46.070;13.222;2022-09-09T13:47:21;29.30;47.80
23377;DHT22;14353;46.070;13.222;2022-09-09T13:49:49;29.30;47.70
23377;DHT22;14353;46.070;13.222;2022-09-09T13:52:17;29.30;47.70
23377;DHT22;14353;46.070;13.222;2022-09-09T13:54:53;29.30;47.70
23377;DHT22;14353;46.070;13.222;2022-09-09T13:57:22;29.30;47.80
23377;DHT22;14353;46.070;13.222;2022-09-09T13:59:52;29.30;47.80
23377;DHT22;14353;46.070;13.222;2022-09-09T14:02:18;29.30;47.70
23377;DHT22;14353;46.070;13.222;2022-09-09T14:04:44;29.30;47.70
23377;DHT22;14353;46.070;13.222;2022-09-09T14:07:16;29.20;47.70
23377;DHT22;14353;46.070;13.222;2022-09-09T14:09:43;29.30;47.80
23377;DHT22;14353;46.070;13.222;2022-09-09T14:12:11;29.30;47.80
23377;DHT22;14353;46.070;13.222;2022-09-09T14:14:38;29.30;47.80
23377;DHT22;14353;46.070;13.222;2022-09-09T14:17:04;29.20;47.70
23377;DHT22;14353;46.070;13.222;2022-09-09T14:19:30;29.20;47.80
23377;DHT22;14353;46.070;13.222;2022-09-09T14:21:57;29.20;47.80
23377;DHT22;14353;46.070;13.222;2022-09-09T14:24:24;29.20;47.90
23377;DHT22;14353;46.070;13.222;2022-09-09T14:26:51;29.20;47.90
23377;DHT22;14353;46.070;13.222;2022-09-09T14:29:17;29.20;48.10
23377;DHT22;14353;46.070;13.222;2022-09-09T14:31:44;29.20;48.00
23377;DHT22;14353;46.070;13.222;2022-09-09T14:34:13;29.20;48.10
23377;DHT22;14353;46.070;13.222;2022-09-09T14:36:40;29.20;48.10
23377;DHT22;14353;46.070;13.222;2022-09-09T14:39:07;29.20;48.10
23377;DHT22;14353;46.070;13.222;2022-09-09T14:41:33;29.20;48.10
23377;DHT22;14353;46.070;13.222;2022-09-09T14:43:59;29.20;48.20
23377;DHT22;14353;46.070;13.222;2022-09-09T14:46:25;29.20;48.20
23377;DHT22;14353;46.070;13.222;2022-09-09T14:48:52;29.20;48.20
23377;DHT22;14353;46.070;13.222;2022-09-09T14:51:24;29.20;48.10
23377;DHT22;14353;46.070;13.222;2022-09-09T14:53:55;29.20;48.10
23377;DHT22;14353;46.070;13.222;2022-09-09T14:56:24;29.30;48.20
23377;DHT22;14353;46.070;13.222;2022-09-09T14:58:56;29.30;48.10
23377;DHT22;14353;46.070;13.222;2022-09-09T15:01:24;29.30;48.10
23377;DHT22;14353;46.070;13.222;2022-09-09T15:03:58;29.30;47.90
23377;DHT22;14353;46.070;13.222;2022-09-09T15:06:27;29.40;47.70
23377;DHT22;14353;46.070;13.222;2022-09-09T15:08:53;29.50;47.70
23377;DHT22;14353;46.070;13.222;2022-09-09T15:11:20;29.50;47.60
23377;DHT22;14353;46.070;13.222;2022-09-09T15:13:46;29.60;47.60
23377;DHT22;14353;46.070;13.222;2022-09-09T15:16:17;29.60;47.50
23377;DHT22;14353;46.070;13.222;2022-09-09T15:18:44;29.60;47.40
23377;DHT22;14353;46.070;13.222;2022-09-09T15:21:16;29.70;47.30
23377;DHT22;14353;46.070;13.222;2022-09-09T15:23:43;29.70;47.20
23377;DHT22;14353;46.070;13.222;2022-09-09T15:26:11;29.70;47.30
23377;DHT22;14353;46.070;13.222;2022-09-09T15:28:40;29.70;47.20
23377;DHT22;14353;46.070;13.222;2022-09-09T15:31:20;29.80;47.20
23377;DHT22;14353;46.070;13.222;2022-09-09T15:33:57;29.80;47.10
23377;DHT22;14353;46.070;13.222;2022-09-09T15:38:54;29.90;47.00
23377;DHT22;14353;46.070;13.222;2022-09-09T15:41:21;29.90;46.90
23377;DHT22;14353;46.070;13.222;2022-09-09T15:43:49;29.90;46.90
23377;DHT22;14353;46.070;13.222;2022-09-09T15:46:33;29.90;47.00
23377;DHT22;14353;46.070;13.222;2022-09-09T15:51:41;29.90;47.00
23377;DHT22;14353;46.070;13.222;2022-09-09T15:54:09;29.90;46.90
23377;DHT22;14353;46.070;13.222;2022-09-09T15:56:36;29.90;46.80
23377;DHT22;14353;46.070;13.222;2022-09-09T15:59:02;30.00;46.90
23377;DHT22;14353;46.070;13.222;2022-09-09T16:01:29;30.00;46.80
23377;DHT22;14353;46.070;13.222;2022-09-09T16:03:57;30.00;46.80
23377;DHT22;14353;46.070;13.222;2022-09-09T16:06:24;30.00;46.90
23377;DHT22;14353;46.070;13.222;2022-09-09T16:08:52;29.90;46.90
23377;DHT22;14353;46.070;13.222;2022-09-09T16:11:22;29.90;47.00
23377;DHT22;14353;46.070;13.222;2022-09-09T16:13:50;29.90;47.10
23377;DHT22;14353;46.070;13.222;2022-09-09T16:16:18;29.90;47.10
23377;DHT22;14353;46.070;13.222;2022-09-09T16:18:56;29.80;47.20
23377;DHT22;14353;46.070;13.222;2022-09-09T16:21:31;29.80;47.30
23377;DHT22;14353;46.070;13.222;2022-09-09T16:23:59;29.70;47.40
23377;DHT22;14353;46.070;13.222;2022-09-09T16:26:27;29.70;47.50
23377;DHT22;14353;46.070;13.222;2022-09-09T16:28:53;29.70;47.60
23377;DHT22;14353;46.070;13.222;2022-09-09T16:31:22;29.60;47.70
23377;DHT22;14353;46.070;13.222;2022-09-09T16:33:49;29.60;47.70
23377;DHT22;14353;46.070;13.222;2022-09-09T16:36:18;29.60;47.90
23377;DHT22;14353;46.070;13.222;2022-09-09T16:38:45;29.50;47.80
23377;DHT22;14353;46.070;13.222;2022-09-09T16:41:13;29.50;47.90
23377;DHT22;14353;46.070;13.222;2022-09-09T16:43:42;29.50;48.00
23377;DHT22;14353;46.070;13.222;2022-09-09T16:46:17;29.50;48.10
23377;DHT22;14353;46.070;13.222;2022-09-09T16:48:45;29.50;48.10
23377;DHT22;14353;46.070;13.222;2022-09-09T16:51:17;29.50;48.20
23377;DHT22;14353;46.070;13.222;2022-09-09T16:53:43;29.50;48.20
23377;DHT22;14353;46.070;13.222;2022-09-09T16:56:14;29.40;48.10
23377;DHT22;14353;46.070;13.222;2022-09-09T16:58:41;29.40;48.20
23377;DHT22;14353;46.070;13.222;2022-09-09T17:01:09;29.40;48.20
23377;DHT22;14353;46.070;13.222;2022-09-09T17:03:40;29.40;48.20
23377;DHT22;14353;46.070;13.222;2022-09-09T17:06:10;29.40;48.10
23377;DHT22;14353;46.070;13.222;2022-09-09T17:08:37;29.40;48.10
23377;DHT22;14353;46.070;13.222;2022-09-09T17:11:17;29.40;48.10
23377;DHT22;14353;46.070;13.222;2022-09-09T17:13:45;29.40;48.10
23377;DHT22;14353;46.070;13.222;2022-09-09T17:16:12;29.40;48.10
23377;DHT22;14353;46.070;13.222;2022-09-09T17:18:39;29.40;48.20
23377;DHT22;14353;46.070;13.222;2022-09-09T17:21:11;29.40;48.20
23377;DHT22;14353;46.070;13.222;2022-09-09T17:23:37;29.40;48.30
23377;DHT22;14353;46.070;13.222;2022-09-09T17:26:08;29.40;48.30
23377;DHT22;14353;46.070;13.222;2022-09-09T17:28:37;29.30;48.30
23377;DHT22;14353;46.070;13.222;2022-09-09T17:31:05;29.30;48.40
23377;DHT22;14353;46.070;13.222;2022-09-09T17:33:37;29.20;48.50
23377;DHT22;14353;46.070;13.222;2022-09-09T17:36:26;29.20;48.60
23377;DHT22;14353;46.070;13.222;2022-09-09T17:38:52;29.10;48.60
23377;DHT22;14353;46.070;13.222;2022-09-09T17:43:45;29.10;48.80
23377;DHT22;14353;46.070;13.222;2022-09-09T17:46:28;29.10;48.90
23377;DHT22;14353;46.070;13.222;2022-09-09T17:48:59;29.00;48.80
23377;DHT22;14353;46.070;13.222;2022-09-09T17:51:28;29.00;48.90
23377;DHT22;14353;46.070;13.222;2022-09-09T17:53:57;29.00;48.90